Flight Track Log - Related Links

Times and Time Zones

All times are in EDT time to prevent confusion due to time zone crossing. See the AWE1253 flight status page for this flight to view local times or setup timezone preferences in your user account.

Time Position Orientation Groundspeed Altitude Reporting Facility
EDT Latitude Longitude Course Direction KTS MPH feet Rate Location/Type
Wed 09:02:05 PM 39.8667 -75.2833 233° Southwest 163 188 900  Level Philadelphia TRACON
Wed 09:02:21 PM 39.8603 -75.2908 222° Southwest 168 193 1,500 1,886 Climbing FAA TRACON SMA TRACON (SMA)
Wed 09:02:40 PM 39.8589 -75.3100 265° West 166 191 2,000 2,526 Climbing FAA TRACON SMA TRACON (SMA)
Wed 09:02:59 PM 39.8575 -75.3303 265° West 177 204 3,100 2,700 Climbing FAA TRACON SMA TRACON (SMA)
Wed 09:03:20 PM 39.8558 -75.3553 265° West 189 217 3,800 1,902 Climbing FAA TRACON SMA TRACON (SMA)
Wed 09:03:40 PM 39.8550 -75.3800 267° West 221 254 4,400 2,154 Climbing FAA TRACON SMA TRACON (SMA)
Wed 09:03:59 PM 39.8544 -75.4056 268° West 232 267 5,200 2,850 Climbing FAA TRACON SMA TRACON (SMA)
Wed 09:04:00 PM 39.8334 -75.6923 270° West  Level FlightAware Approximate
Wed 09:04:20 PM 39.8531 -75.4389 267° West 235 270 6,300  Level FAA TRACON SMA TRACON (SMA)
Wed 09:04:39 PM 39.8519 -75.4650 267° West 237 273 7,300 2,700 Climbing FAA TRACON SMA TRACON (SMA)
Wed 09:05:00 PM 39.8027 -75.8345 232° Southwest  Level FlightAware Approximate
Wed 09:05:00 PM 39.8494 -75.4906 263° West 240 276 8,100  Level FAA TRACON SMA TRACON (SMA)
Wed 09:05:20 PM 39.8492 -75.5261 269° West 245 282 9,200 2,634 Climbing FAA TRACON SMA TRACON (SMA)
Wed 09:05:41 PM 39.8481 -75.5539 267° West 249 287 9,900 1,231 Climbing FAA TRACON SMA TRACON (SMA)
Wed 09:05:59 PM 39.8469 -75.5836 267° West 266 306 10,000 154 Climbing FAA TRACON SMA TRACON (SMA)
Wed 09:06:00 PM 39.7283 -75.9567 226° Southwest  Level FlightAware Approximate
Wed 09:06:20 PM 39.8456 -75.6250 268° West 295 339 10,000  Level FAA TRACON SMA TRACON (SMA)
Wed 09:06:40 PM 39.8442 -75.6572 267° West 300 345 10,000 750 Level FAA TRACON SMA TRACON (SMA)
Wed 09:07:00 PM 39.6519 -76.0759 233° Southwest  Level FlightAware Approximate
Wed 09:07:00 PM 39.8428 -75.6928 267° West 305 351 10,500  Level FAA TRACON SMA TRACON (SMA)
Wed 09:07:20 PM 39.8408 -75.7367 267° West 313 360 11,700 3,538 Climbing FAA TRACON SMA TRACON (SMA)
Wed 09:07:39 PM 39.8392 -75.7717 266° West 313 360 12,800 3,000 Climbing FAA TRACON SMA TRACON (SMA)
Wed 09:08:00 PM 39.8322 -75.8033 254° West 303 349 13,700 3,150 Climbing FAA TRACON SMA TRACON (SMA)
Wed 09:08:19 PM 39.8136 -75.8381 235° Southwest 300 345 14,900 2,550 Climbing FAA TRACON SMA TRACON (SMA)
Wed 09:08:40 PM 39.7967 -75.8642 230° Southwest 318 366 15,400 1,463 Climbing FAA TRACON SMA TRACON (SMA)
Wed 09:09:00 PM 39.7797 -75.8919 232° Southwest 325 374 15,900 2,400 Climbing FAA TRACON SMA TRACON (SMA)
Wed 09:09:20 PM 39.7567 -75.9281 230° Southwest 330 380 17,000 2,634 Climbing FAA TRACON SMA TRACON (SMA)
Wed 09:09:41 PM 39.7389 -75.9558 230° Southwest 333 383 17,700 1,350 Climbing FAA TRACON SMA TRACON (SMA)
Wed 09:10:00 PM 39.7339 -75.9653 235° Southwest 336 387 17,900 2,345 Climbing FAA TRACON SMA TRACON (SMA)
Wed 09:11:31 PM 39.6228 -76.1411 231° Southwest 349 402 22,000 2,424 Climbing Washington Center
Wed 09:12:31 PM 39.5597 -76.2428 231° Southwest 355 409 24,000 1,850 Climbing Washington Center
Wed 09:13:31 PM 39.4947 -76.3419 230° Southwest 361 415 25,700 1,800 Climbing Washington Center
Wed 09:14:31 PM 39.4250 -76.4514 231° Southwest 381 438 27,600 1,150 Climbing Washington Center
Wed 09:15:31 PM 39.3533 -76.5578 229° Southwest 388 447 28,000 200 Climbing Washington Center
Wed 09:16:31 PM 39.2839 -76.6642 230° Southwest 388 447 28,000  Level Washington Center
Wed 09:17:31 PM 39.2183 -76.7678 231° Southwest 388 447 28,000  Level Washington Center
Wed 09:18:31 PM 39.1506 -76.8736 230° Southwest 388 447 28,000  Level Washington Center
Wed 09:19:31 PM 39.0825 -76.9819 231° Southwest 393 452 28,000  Level Washington Center
Wed 09:20:31 PM 39.0106 -77.0769 226° Southwest 393 452 28,000  Level Washington Center
Wed 09:21:31 PM 38.9303 -77.1633 220° Southwest 382 440 28,000  Level Washington Center
Wed 09:22:31 PM 38.8497 -77.2522 221° Southwest 382 440 28,000  Level Washington Center
Wed 09:23:31 PM 38.7694 -77.3408 221° Southwest 382 440 28,000  Level Washington Center
Wed 09:24:31 PM 38.6953 -77.4217 220° Southwest 387 445 28,000  Level Washington Center
Wed 09:25:31 PM 38.6125 -77.5100 220° Southwest 387 445 28,000  Level Washington Center
Wed 09:26:31 PM 38.5317 -77.6008 221° Southwest 387 445 28,000  Level Washington Center
Wed 09:27:31 PM 38.4489 -77.6886 220° Southwest 387 445 28,000  Level Washington Center
Wed 09:29:31 PM 38.2853 -77.8639 220° Southwest 387 445 28,000  Level Washington Center
Wed 09:30:31 PM 38.2022 -77.9539 220° Southwest 387 445 28,000  Level Washington Center
Wed 09:31:31 PM 38.1189 -78.0436 220° Southwest 387 445 28,000  Level Washington Center
Wed 09:32:31 PM 38.0358 -78.1333 220° Southwest 387 445 28,000  Level Washington Center
Wed 09:33:31 PM 37.9547 -78.2147 218° Southwest 381 438 28,000  Level Washington Center
Wed 09:34:31 PM 37.8675 -78.2986 217° Southwest 387 445 28,000  Level Washington Center
Wed 09:35:31 PM 37.7800 -78.3794 216° Southwest 393 452 28,000  Level Washington Center
Wed 09:36:31 PM 37.6925 -78.4631 217° Southwest 399 459 28,000  Level Washington Center
Wed 09:37:31 PM 37.5944 -78.5536 216° Southwest 406 467 28,000  Level Washington Center
Wed 09:38:31 PM 37.5047 -78.6364 216° Southwest 406 467 28,000  Level Washington Center
Wed 09:39:31 PM 37.4172 -78.7167 216° Southwest 400 460 28,000  Level Washington Center
Wed 09:40:32 PM 37.3294 -78.8019 218° Southwest 400 460 28,000  Level Washington Center
Wed 09:41:31 PM 37.2397 -78.8817 215° Southwest 400 460 28,000  Level Washington Center
Wed 09:42:31 PM 37.1581 -78.9589 217° Southwest 400 460 28,000  Level Washington Center
Wed 09:43:31 PM 37.0703 -79.0408 217° Southwest 400 460 28,000  Level Washington Center
Wed 09:44:31 PM 36.9803 -79.1228 216° Southwest 400 460 28,000  Level Washington Center
Wed 09:45:31 PM 36.8922 -79.2044 217° Southwest 400 460 28,000  Level Washington Center
Wed 09:46:31 PM 36.7936 -79.2958 217° Southwest 400 460 28,000  Level Washington Center
Wed 09:47:32 PM 36.7056 -79.3769 216° Southwest 400 460 28,000  Level Washington Center
Wed 09:48:31 PM 36.6172 -79.4608 217° Southwest 400 460 28,000  Level Washington Center
Wed 09:50:17 PM 36.4578 -79.5989 215° Southwest 413 475 28,000  Level Atlanta Center
Wed 09:51:17 PM 36.3667 -79.6814 216° Southwest 413 475 28,000  Level Atlanta Center
Wed 09:52:17 PM 36.2778 -79.7633 217° Southwest 413 475 28,000  Level Atlanta Center
Wed 09:53:17 PM 36.1972 -79.8397 217° Southwest 413 475 28,000  Level Atlanta Center
Wed 09:54:17 PM 36.1019 -79.9217 215° Southwest 419 482 28,000  Level Atlanta Center
Wed 09:55:17 PM 36.0064 -79.9961 212° Southwest 419 482 28,000  Level Atlanta Center
Wed 09:56:17 PM 35.8914 -80.0506 201° Southwest 409 471 28,000  Level Atlanta Center
Wed 09:57:17 PM 35.7867 -80.1017 202° Southwest 415 478 28,000  Level Atlanta Center
Wed 09:58:17 PM 35.6778 -80.1581 203° Southwest 415 478 28,000  Level Atlanta Center
Wed 09:59:17 PM 35.5731 -80.2139 203° Southwest 421 484 28,000  Level Atlanta Center
Wed 10:00:17 PM 35.4642 -80.2675 202° Southwest 421 484 28,000  Level Atlanta Center
Wed 10:01:17 PM 35.3572 -80.3208 202° Southwest 416 479 28,000  Level Atlanta Center
Wed 10:02:17 PM 35.2506 -80.3739 202° Southwest 409 471 28,000  Level Atlanta Center
Wed 10:03:17 PM 35.1436 -80.4294 203° Southwest 409 471 28,000  Level Atlanta Center
Wed 10:04:51 PM 34.9739 -80.5114 202° Southwest 402 463 28,000  Level Jacksonville Center
Wed 10:05:51 PM 34.8642 -80.5650 202° Southwest 412 474 28,000  Level Jacksonville Center
Wed 10:06:51 PM 34.7733 -80.6128 203° Southwest 407 468 28,000  Level Jacksonville Center
Wed 10:07:51 PM 34.6681 -80.6661 203° Southwest 407 468 28,000  Level Jacksonville Center
Wed 10:08:51 PM 34.5458 -80.7247 202° Southwest 428 493 28,000  Level Jacksonville Center
Wed 10:09:51 PM 34.4364 -80.7778 202° Southwest 433 498 28,000  Level Jacksonville Center
Wed 10:10:51 PM 34.3431 -80.8178 199° South 420 483 28,000 -50 Level Jacksonville Center
Wed 10:11:51 PM 34.2375 -80.8731 203° Southwest 412 474 27,900  Descending Jacksonville Center
Wed 10:12:51 PM 34.1300 -80.9258 202° Southwest 412 474 28,000 50 Climbing Jacksonville Center
Wed 10:13:51 PM 34.0181 -80.9808 202° Southwest 417 480 28,000  Level Jacksonville Center
Wed 10:14:51 PM 33.8978 -81.0361 201° Southwest 422 486 28,000  Level Jacksonville Center
Wed 10:15:51 PM 33.7900 -81.0883 202° Southwest 427 491 28,000  Level Jacksonville Center
Wed 10:16:51 PM 33.6928 -81.1378 203° Southwest 427 491 28,000  Level Jacksonville Center
Wed 10:17:51 PM 33.5828 -81.1922 202° Southwest 432 497 28,000  Level Jacksonville Center
Wed 10:18:51 PM 33.4731 -81.2492 203° Southwest 432 497 28,000  Level Jacksonville Center
Wed 10:19:51 PM 33.3631 -81.3008 201° Southwest 432 497 28,000  Level Jacksonville Center
Wed 10:20:51 PM 33.2553 -81.3525 202° Southwest 432 497 28,000 -50 Level Jacksonville Center
Wed 10:21:51 PM 33.1472 -81.4064 203° Southwest 432 497 27,900 -50 Descending Jacksonville Center
Wed 10:22:51 PM 33.0414 -81.4578 202° Southwest 422 486 27,900  Level Jacksonville Center
Wed 10:23:51 PM 32.9375 -81.5064 201° Southwest 417 480 27,900  Level Jacksonville Center
Wed 10:24:51 PM 32.8358 -81.5575 203° Southwest 406 467 27,900 50 Level Jacksonville Center
Wed 10:25:51 PM 32.7319 -81.6058 201° Southwest 406 467 28,000 50 Climbing Jacksonville Center
Wed 10:26:51 PM 32.6281 -81.6567 202° Southwest 412 474 28,000  Level Jacksonville Center
Wed 10:27:51 PM 32.5139 -81.7125 202° Southwest 412 474 28,000  Level Jacksonville Center
Wed 10:28:51 PM 32.4100 -81.7631 202° Southwest 412 474 28,000  Level Jacksonville Center
Wed 10:29:51 PM 32.3039 -81.8111 201° Southwest 412 474 28,000 -100 Level Jacksonville Center
Wed 10:30:51 PM 32.1978 -81.8639 203° Southwest 412 474 27,800 -900 Descending Jacksonville Center
Wed 10:31:51 PM 32.1042 -81.9092 202° Southwest 412 474 26,200 -900 Descending Jacksonville Center
Wed 10:32:51 PM 31.9897 -81.9617 201° Southwest 412 474 26,000 -100 Descending Jacksonville Center
Wed 10:33:51 PM 31.8836 -82.0044 199° South 407 468 26,000  Level Jacksonville Center
Wed 10:34:51 PM 31.7733 -82.0494 199° South 412 474 26,000  Level Jacksonville Center
Wed 10:35:51 PM 31.6672 -82.0919 199° South 412 474 26,000  Level Jacksonville Center
Wed 10:36:51 PM 31.5672 -82.1294 198° South 412 474 26,000  Level Jacksonville Center
Wed 10:37:51 PM 31.4589 -82.1789 201° Southwest 417 480 26,000  Level Jacksonville Center
Wed 10:38:51 PM 31.3464 -82.2211 198° South 417 480 26,000  Level Jacksonville Center
Wed 10:39:51 PM 31.2128 -82.2392 187° South 431 496 26,000  Level Jacksonville Center
Wed 10:40:51 PM 31.0897 -82.2472 183° South 444 511 26,000 -50 Level Jacksonville Center
Wed 10:41:51 PM 30.9664 -82.2578 184° South 444 511 25,900  Descending Jacksonville Center
Wed 10:42:51 PM 30.8433 -82.2658 183° South 444 511 26,000 50 Climbing Jacksonville Center
Wed 10:43:51 PM 30.7203 -82.2739 183° South 444 511 26,000  Level Jacksonville Center
Wed 10:44:51 PM 30.5969 -82.2819 183° South 444 511 26,000  Level Jacksonville Center
Wed 10:45:51 PM 30.4758 -82.2900 183° South 439 505 26,000  Level Jacksonville Center
Wed 10:46:51 PM 30.3528 -82.2981 183° South 444 511 26,000  Level Jacksonville Center
Wed 10:47:51 PM 30.2275 -82.3058 183° South 444 511 26,000  Level Jacksonville Center
Wed 10:48:51 PM 30.1044 -82.3189 185° South 444 511 26,000  Level Jacksonville Center
Wed 10:49:51 PM 29.9856 -82.3314 185° South 444 511 26,000  Level Jacksonville Center
Wed 10:50:51 PM 29.8603 -82.3394 183° South 444 511 26,000  Level Jacksonville Center
Wed 10:51:51 PM 29.7600 -82.3447 183° South 444 511 26,000  Level Jacksonville Center
Wed 10:52:51 PM 29.6244 -82.3525 183° South 444 511 26,000  Level Jacksonville Center
Wed 10:53:51 PM 29.4992 -82.3486 178° South 444 511 26,000 -100 Level Jacksonville Center
Wed 10:54:51 PM 29.3739 -82.3325 174° South 444 511 25,800 -600 Descending Jacksonville Center
Wed 10:55:51 PM 29.2464 -82.3189 175° South 449 517 24,800 -1,400 Descending Jacksonville Center
Wed 10:56:51 PM 29.1211 -82.3031 174° South 454 522 23,000 -2,400 Descending Jacksonville Center
Wed 10:57:51 PM 29.0019 -82.2872 173° South 454 522 20,000 -3,150 Descending Jacksonville Center
Wed 10:58:51 PM 28.8872 -82.2714 173° South 434 499 16,700 -2,419 Descending Jacksonville Center
Wed 11:01:02 PM 28.6333 -82.2500 176° South 375 432 12,300 -1,688 Descending Tampa TRACON
Wed 11:02:03 PM 28.5333 -82.2500 180° South 373 429 11,300 -645 Descending Tampa TRACON
Wed 11:03:03 PM 28.4333 -82.2500 180° South 371 427 11,000 -500 Descending Tampa TRACON
Wed 11:04:03 PM 28.3333 -82.2833 196° South 350 403 10,300 -750 Descending Tampa TRACON
Wed 11:05:03 PM 28.2500 -82.3167 199° South 297 342 9,500 -1,250 Descending Tampa TRACON
Wed 11:06:03 PM 28.1667 -82.3333 190° South 285 328 7,800 -1,619 Descending Tampa TRACON
Wed 11:07:09 PM 28.1000 -82.3667 204° Southwest 277 319 6,100 -1,474 Descending Tampa TRACON
Wed 11:07:57 PM 28.0333 -82.4000 204° Southwest 270 311 5,000 -579 Descending Tampa TRACON
Wed 11:09:03 PM 27.9667 -82.4167 192° South 255 293 5,000  Level Tampa TRACON
Wed 11:09:57 PM 27.9000 -82.4167 180° South 237 273 5,000  Level Tampa TRACON
Wed 11:10:57 PM 27.8333 -82.4167 180° South 237 273 5,000 -450 Level Tampa TRACON
Wed 11:11:57 PM 27.7833 -82.4500 211° Southwest 219 252 4,100 -900 Descending Tampa TRACON

Login

Don't have an account? Register now (free) for customized features, flight alerts, and more!